sensor_id;sensor_type;location;lat;lon;timestamp;pressure;altitude;pressure_sealevel;temperature;humidity
14885;BME280;7534;50.762;7.000;2023-02-12T13:49:53;87555.47;;;-143.16;52.80
14885;BME280;7534;50.762;7.000;2023-02-12T15:06:32;88108.53;;;-143.16;57.40
14885;BME280;7534;50.762;7.000;2023-02-12T15:17:39;88132.75;;;-143.16;58.76
14885;BME280;7534;50.762;7.000;2023-02-12T15:22:58;88025.78;;;-143.16;58.24
14885;BME280;7534;50.762;7.000;2023-02-12T15:25:42;88288.19;;;-143.16;58.34
14885;BME280;7534;50.762;7.000;2023-02-12T15:28:31;88064.13;;;-143.16;58.08
14885;BME280;7534;50.762;7.000;2023-02-12T15:31:28;88282.16;;;-143.16;58.32
14885;BME280;7534;50.762;7.000;2023-02-12T15:34:01;87825.94;;;-143.16;58.48
14885;BME280;7534;50.762;7.000;2023-02-12T15:36:32;88177.16;;;-143.16;58.82
14885;BME280;7534;50.762;7.000;2023-02-12T15:39:13;88114.59;;;-143.16;58.56
14885;BME280;7534;50.762;7.000;2023-02-12T15:41:41;88138.81;;;-143.16;58.91
14885;BME280;7534;50.762;7.000;2023-02-12T15:44:24;88092.38;;;-143.16;58.71
14885;BME280;7534;50.762;7.000;2023-02-12T15:47:01;88094.41;;;-143.16;58.44
14885;BME280;7534;50.762;7.000;2023-02-12T15:49:35;88225.63;;;-143.16;59.22
14885;BME280;7534;50.762;7.000;2023-02-12T15:52:22;88286.19;;;-143.16;59.29
14885;BME280;7534;50.762;7.000;2023-02-12T15:55:04;88270.03;;;-143.16;58.85
14885;BME280;7534;50.762;7.000;2023-02-12T15:58:02;88106.53;;;-143.16;59.01
14885;BME280;7534;50.762;7.000;2023-02-12T16:00:45;88189.28;;;-143.16;59.38
14885;BME280;7534;50.762;7.000;2023-02-12T16:04:12;88177.16;;;-143.16;59.30
14885;BME280;7534;50.762;7.000;2023-02-12T16:06:47;88138.81;;;-143.16;59.38
14885;BME280;7534;50.762;7.000;2023-02-12T16:09:47;88338.66;;;-143.16;59.39
14885;BME280;7534;50.762;7.000;2023-02-12T16:13:01;88253.88;;;-143.16;59.71
14885;BME280;7534;50.762;7.000;2023-02-12T16:15:42;88221.59;;;-143.16;59.89
14885;BME280;7534;50.762;7.000;2023-02-12T16:18:26;88136.78;;;-143.16;59.65
14885;BME280;7534;50.762;7.000;2023-02-12T16:21:16;88195.34;;;-143.16;59.58
14885;BME280;7534;50.762;7.000;2023-02-12T16:23:49;88068.16;;;-143.16;59.41
14885;BME280;7534;50.762;7.000;2023-02-12T16:26:39;88187.25;;;-143.16;59.71
14885;BME280;7534;50.762;7.000;2023-02-12T16:32:46;88247.81;;;-143.16;60.39
14885;BME280;7534;50.762;7.000;2023-02-12T16:37:48;88237.72;;;-143.16;59.68
14885;BME280;7534;50.762;7.000;2023-02-12T16:48:21;88157.00;;;-143.16;60.00
14885;BME280;7534;50.762;7.000;2023-02-12T16:50:57;88185.25;;;-143.16;60.38
14885;BME280;7534;50.762;7.000;2023-02-12T16:53:33;88253.88;;;-143.16;59.85
14885;BME280;7534;50.762;7.000;2023-02-12T16:56:01;88144.88;;;-143.16;60.39
14885;BME280;7534;50.762;7.000;2023-02-12T16:58:27;88187.25;;;-143.16;60.39
14885;BME280;7534;50.762;7.000;2023-02-12T17:00:56;88187.25;;;-143.16;59.98
14885;BME280;7534;50.762;7.000;2023-02-12T17:03:33;88249.84;;;-143.16;59.71
14885;BME280;7534;50.762;7.000;2023-02-12T17:05:59;88060.09;;;-143.16;60.12
14885;BME280;7534;50.762;7.000;2023-02-12T17:08:25;88191.31;;;-143.16;60.39
14885;BME280;7534;50.762;7.000;2023-02-12T17:10:51;88219.56;;;-143.16;60.47
14885;BME280;7534;50.762;7.000;2023-02-12T17:13:21;87856.22;;;-143.16;60.62
14885;BME280;7534;50.762;7.000;2023-02-12T17:15:57;88272.06;;;-143.16;60.07
14885;BME280;7534;50.762;7.000;2023-02-12T17:18:24;88237.72;;;-143.16;59.81
14885;BME280;7534;50.762;7.000;2023-02-12T17:20:59;87991.47;;;-143.16;59.97
14885;BME280;7534;50.762;7.000;2023-02-12T17:23:27;87987.44;;;-143.16;59.51
14885;BME280;7534;50.762;7.000;2023-02-12T17:25:55;88146.88;;;-143.16;59.22
14885;BME280;7534;50.762;7.000;2023-02-12T17:28:54;88001.56;;;-143.16;59.24
14885;BME280;7534;50.762;7.000;2023-02-12T17:31:50;88189.28;;;-143.16;58.85
14885;BME280;7534;50.762;7.000;2023-02-12T17:34:42;88338.66;;;-143.16;58.88
14885;BME280;7534;50.762;7.000;2023-02-12T17:37:09;88209.47;;;-143.16;58.88
14885;BME280;7534;50.762;7.000;2023-02-12T17:39:35;88173.13;;;-143.16;58.74
14885;BME280;7534;50.762;7.000;2023-02-12T17:42:01;88185.25;;;-143.16;58.65
14885;BME280;7534;50.762;7.000;2023-02-12T17:44:27;88068.16;;;-143.16;58.84
14885;BME280;7534;50.762;7.000;2023-02-12T17:46:52;87975.31;;;-143.16;58.93
14885;BME280;7534;50.762;7.000;2023-02-12T17:49:20;87999.53;;;-143.16;58.89
14885;BME280;7534;50.762;7.000;2023-02-12T17:51:47;87967.25;;;-143.16;58.87
14885;BME280;7534;50.762;7.000;2023-02-12T17:54:15;88116.63;;;-143.16;59.05
14885;BME280;7534;50.762;7.000;2023-02-12T17:56:42;88213.50;;;-143.16;59.15
14885;BME280;7534;50.762;7.000;2023-02-12T17:59:09;88235.72;;;-143.16;59.31
14885;BME280;7534;50.762;7.000;2023-02-12T18:01:40;88169.09;;;-143.16;59.52
14885;BME280;7534;50.762;7.000;2023-02-12T18:04:11;88298.28;;;-143.16;59.42
14885;BME280;7534;50.762;7.000;2023-02-12T18:07:16;88037.88;;;-143.16;59.50
14885;BME280;7534;50.762;7.000;2023-02-12T18:09:42;88148.91;;;-143.16;59.53
14885;BME280;7534;50.762;7.000;2023-02-12T18:12:13;87951.09;;;-143.16;59.87
14885;BME280;7534;50.762;7.000;2023-02-12T18:14:39;88191.31;;;-143.16;59.77
14885;BME280;7534;50.762;7.000;2023-02-12T18:17:22;88126.72;;;-143.16;60.16
14885;BME280;7534;50.762;7.000;2023-02-12T18:19:49;87821.91;;;-143.16;60.27
14885;BME280;7534;50.762;7.000;2023-02-12T18:22:18;87957.16;;;-143.16;60.28
14885;BME280;7534;50.762;7.000;2023-02-12T18:24:49;88104.50;;;-143.16;60.33
14885;BME280;7534;50.762;7.000;2023-02-12T18:27:16;88209.47;;;-143.16;60.37
14885;BME280;7534;50.762;7.000;2023-02-12T18:29:45;88461.81;;;-143.16;60.41
14885;BME280;7534;50.762;7.000;2023-02-12T18:32:11;88245.81;;;-143.16;60.52
14885;BME280;7534;50.762;7.000;2023-02-12T18:34:43;88090.38;;;-143.16;60.63
14885;BME280;7534;50.762;7.000;2023-02-12T18:37:12;88217.53;;;-143.16;60.75
14885;BME280;7534;50.762;7.000;2023-02-12T18:40:10;88280.13;;;-143.16;61.09
14885;BME280;7534;50.762;7.000;2023-02-12T18:42:48;88237.72;;;-143.16;60.75
14885;BME280;7534;50.762;7.000;2023-02-12T18:45:22;88183.22;;;-143.16;60.87
14885;BME280;7534;50.762;7.000;2023-02-12T18:47:48;88213.50;;;-143.16;61.03
14885;BME280;7534;50.762;7.000;2023-02-12T18:50:17;88130.75;;;-143.16;61.06
14885;BME280;7534;50.762;7.000;2023-02-12T18:52:51;88217.53;;;-143.16;61.29
14885;BME280;7534;50.762;7.000;2023-02-12T18:55:17;88104.50;;;-143.16;61.45
14885;BME280;7534;50.762;7.000;2023-02-12T18:57:44;88425.47;;;-143.16;61.55
14885;BME280;7534;50.762;7.000;2023-02-12T19:00:10;88068.16;;;-143.16;61.85
14885;BME280;7534;50.762;7.000;2023-02-12T19:02:36;88041.94;;;-143.16;62.48
14885;BME280;7534;50.762;7.000;2023-02-12T19:05:02;88288.19;;;-143.16;62.87
14885;BME280;7534;50.762;7.000;2023-02-12T19:07:28;88179.19;;;-143.16;63.15
14885;BME280;7534;50.762;7.000;2023-02-12T19:09:56;88058.06;;;-143.16;63.29
14885;BME280;7534;50.762;7.000;2023-02-12T19:12:22;88300.31;;;-143.16;63.87
14885;BME280;7534;50.762;7.000;2023-02-12T19:14:51;88459.78;;;-143.16;64.15
14885;BME280;7534;50.762;7.000;2023-02-12T19:17:17;88171.13;;;-143.16;64.34
14885;BME280;7534;50.762;7.000;2023-02-12T19:19:44;88043.94;;;-143.16;64.42
14885;BME280;7534;50.762;7.000;2023-02-12T19:22:10;88310.41;;;-143.16;64.33
14885;BME280;7534;50.762;7.000;2023-02-12T19:24:41;88215.53;;;-143.16;64.19
14885;BME280;7534;50.762;7.000;2023-02-12T19:27:14;88328.56;;;-143.16;63.88
14885;BME280;7534;50.762;7.000;2023-02-12T19:29:43;88320.50;;;-143.16;63.87
14885;BME280;7534;50.762;7.000;2023-02-12T19:32:14;88294.25;;;-143.16;63.75
14885;BME280;7534;50.762;7.000;2023-02-12T19:34:40;88338.66;;;-143.16;63.73
14885;BME280;7534;50.762;7.000;2023-02-12T19:37:06;88314.44;;;-143.16;63.69
14885;BME280;7534;50.762;7.000;2023-02-12T19:39:42;88183.22;;;-143.16;63.69
14885;BME280;7534;50.762;7.000;2023-02-12T19:42:19;88056.06;;;-143.16;63.72
14885;BME280;7534;50.762;7.000;2023-02-12T19:44:50;87987.44;;;-143.16;63.80
14885;BME280;7534;50.762;7.000;2023-02-12T19:47:38;88247.81;;;-143.16;63.83
14885;BME280;7534;50.762;7.000;2023-02-12T19:50:20;88276.09;;;-143.16;63.58
14885;BME280;7534;50.762;7.000;2023-02-12T19:52:45;88330.59;;;-143.16;63.58
14885;BME280;7534;50.762;7.000;2023-02-12T19:55:20;88328.56;;;-143.16;63.35
14885;BME280;7534;50.762;7.000;2023-02-12T19:57:46;88308.38;;;-143.16;63.51
14885;BME280;7534;50.762;7.000;2023-02-12T20:00:16;88209.47;;;-143.16;63.20
14885;BME280;7534;50.762;7.000;2023-02-12T20:03:06;88268.00;;;-143.16;62.98
14885;BME280;7534;50.762;7.000;2023-02-12T20:06:01;88292.22;;;-143.16;63.07
14885;BME280;7534;50.762;7.000;2023-02-12T20:08:27;88603.13;;;-143.16;62.98
14885;BME280;7534;50.762;7.000;2023-02-12T20:10:53;88332.63;;;-143.16;63.09
14885;BME280;7534;50.762;7.000;2023-02-12T20:13:23;88310.41;;;-143.16;62.69
14885;BME280;7534;50.762;7.000;2023-02-12T20:15:52;88375.00;;;-143.16;62.92
14885;BME280;7534;50.762;7.000;2023-02-12T20:19:10;88338.66;;;-143.16;62.30
14885;BME280;7534;50.762;7.000;2023-02-12T20:22:18;88290.22;;;-143.16;62.67
14885;BME280;7534;50.762;7.000;2023-02-12T20:24:44;88350.78;;;-143.16;62.68
14885;BME280;7534;50.762;7.000;2023-02-12T20:27:13;88181.22;;;-143.16;62.65
14885;BME280;7534;50.762;7.000;2023-02-12T20:29:42;88342.72;;;-143.16;62.71
14885;BME280;7534;50.762;7.000;2023-02-12T20:32:56;88140.84;;;-143.16;62.81
14885;BME280;7534;50.762;7.000;2023-02-12T20:36:33;88362.91;;;-143.16;62.71
14885;BME280;7534;50.762;7.000;2023-02-12T20:39:08;88328.56;;;-143.16;62.87
14885;BME280;7534;50.762;7.000;2023-02-12T20:42:03;88237.72;;;-143.16;63.06
14885;BME280;7534;50.762;7.000;2023-02-12T20:45:06;88266.00;;;-143.16;63.20
14885;BME280;7534;50.762;7.000;2023-02-12T20:52:25;88266.00;;;-143.16;63.77
14885;BME280;7534;50.762;7.000;2023-02-12T20:59:40;88106.53;;;-143.16;63.67
14885;BME280;7534;50.762;7.000;2023-02-12T21:02:10;88370.97;;;-143.16;63.79
14885;BME280;7534;50.762;7.000;2023-02-12T21:04:37;88296.28;;;-143.16;64.14
14885;BME280;7534;50.762;7.000;2023-02-12T21:07:02;88177.16;;;-143.16;63.93
14885;BME280;7534;50.762;7.000;2023-02-12T21:09:51;88570.84;;;-143.16;63.76
14885;BME280;7534;50.762;7.000;2023-02-12T21:12:23;88492.09;;;-143.16;63.80
14885;BME280;7534;50.762;7.000;2023-02-12T21:15:10;88397.22;;;-143.16;64.21
14885;BME280;7534;50.762;7.000;2023-02-12T21:17:47;88385.09;;;-143.16;63.99
14885;BME280;7534;50.762;7.000;2023-02-12T21:20:17;88334.63;;;-143.16;63.88
14885;BME280;7534;50.762;7.000;2023-02-12T21:22:44;88383.09;;;-143.16;63.85
14885;BME280;7534;50.762;7.000;2023-02-12T21:25:11;88201.41;;;-143.16;63.91
14885;BME280;7534;50.762;7.000;2023-02-12T21:27:37;88419.41;;;-143.16;64.08
14885;BME280;7534;50.762;7.000;2023-02-12T21:30:14;88322.53;;;-143.16;64.25
14885;BME280;7534;50.762;7.000;2023-02-12T21:32:46;88318.47;;;-143.16;64.18
14885;BME280;7534;50.762;7.000;2023-02-12T21:40:42;88566.78;;;-143.16;64.42
14885;BME280;7534;50.762;7.000;2023-02-12T21:44:24;88274.06;;;-143.16;64.39
14885;BME280;7534;50.762;7.000;2023-02-12T21:47:45;88336.66;;;-143.16;64.55
14885;BME280;7534;50.762;7.000;2023-02-12T21:50:50;88358.84;;;-143.16;64.53
14885;BME280;7534;50.762;7.000;2023-02-12T21:53:16;88338.66;;;-143.16;64.56
14885;BME280;7534;50.762;7.000;2023-02-12T21:55:42;88352.81;;;-143.16;64.49
14885;BME280;7534;50.762;7.000;2023-02-12T21:58:07;88623.31;;;-143.16;64.69
14885;BME280;7534;50.762;7.000;2023-02-12T22:00:33;88383.09;;;-143.16;64.61
14885;BME280;7534;50.762;7.000;2023-02-12T22:07:54;88415.38;;;-143.16;64.22
14885;BME280;7534;50.762;7.000;2023-02-12T22:22:37;88657.66;;;-143.16;65.57
14885;BME280;7534;50.762;7.000;2023-02-12T22:25:04;88399.22;;;-143.16;65.38
14885;BME280;7534;50.762;7.000;2023-02-12T22:27:49;88282.16;;;-143.16;65.42
14885;BME280;7534;50.762;7.000;2023-02-12T22:30:15;88498.16;;;-143.16;65.30
14885;BME280;7534;50.762;7.000;2023-02-12T22:32:42;88354.81;;;-143.16;65.44
14885;BME280;7534;50.762;7.000;2023-02-12T22:35:08;88362.91;;;-143.16;65.75
14885;BME280;7534;50.762;7.000;2023-02-12T22:37:34;88391.16;;;-143.16;65.89
14885;BME280;7534;50.762;7.000;2023-02-12T22:40:08;88383.09;;;-143.16;65.93
14885;BME280;7534;50.762;7.000;2023-02-12T22:42:35;88411.34;;;-143.16;65.73
14885;BME280;7534;50.762;7.000;2023-02-12T22:45:01;88360.88;;;-143.16;65.76
14885;BME280;7534;50.762;7.000;2023-02-12T22:47:27;88366.94;;;-143.16;65.63
14885;BME280;7534;50.762;7.000;2023-02-12T22:50:00;88387.13;;;-143.16;65.52
14885;BME280;7534;50.762;7.000;2023-02-12T22:52:27;88312.44;;;-143.16;65.64
